עמוד ראשי
תמונות לווין תחזית 15-יוםאקליםתחזית ים סופות טרופיות ברק שדות תעופהשאלות נפוצות עלון אודות
מזג אוויר : אירופה אפריקה אמריקה הצפונית אמריקה הדרומית אסיה אוסטרליה-אוקיאניה אחר
שפות איש קשר

שטוטגרט, גרמניה

Echterdingen

קו רוחב: 48-41N, קו אורך: 009-13E, גובה: 396 m


METAR: EDDS 232050Z 29005KT CAVOK 14/07 Q1019
short-TAF: מיושן (47899 שעות)
long-TAF: EDDS 231700Z 2318/2418 VRB03KT CAVOK BECMG 2408/2410 07006KT PROB30 TEMPO 2412/2418 TSRA BKN045CB

זמן: 23:00 (21:00 UTC)

תצפית מזג אוויר נוכחית

הדו"ח נערך לפני 10 דקות, בשעה 20:50 UTC  
רוח 05 קשר מכיוון מערב/צפון-מערב
טמפרטורת 14°C
לחות 63%
לחץ 1019 hPa
ראות 10 km או יותר
ללא עננים שבסיסם נמוך מ 1500 רגל או קומולונימבוס

שינוי יחידות

תחזית

הדו"ח נערך לפני 3 שעות ו 33 דקות, בשעה 17:27 UTC  
תחזית בתוקף מ 23 ב 18 UTC עד 24 ב 18 UTC
רוח 03 קשר רוח עם כיוונים משתנים
ראות 10 km או יותר
ללא עננים שבסיסם נמוך מ 1500 רגל או קומולונימבוס
יעשה מ
24 ב 08 UTC עד 24 ב 10 UTC
רוח 06 קשר מכיוון מזרח/צפון-מזרח
הסתברות 30% :
זמנית מ -
24 ב 12 UTC עד 24 ב 18 UTC
עננים בינוניים בגובה 4500 ft , קומולונימבוס.
סופת רעמים גשם
המידע באתר זה מותנה של תניית פטור
מזג אוויר : אירופה אפריקה אמריקה הצפונית אמריקה הדרומית אסיה אוסטרליה-אוקיאניה אחר
תמונות לווין תחזית 15-יוםאקליםתחזית ים סופות טרופיות ברק שדות תעופהשאלות נפוצות שפות איש קשר עלון אודות